createdAt,value
2017-08-16T00:01:38.359Z,4.23
2017-08-16T00:04:06.968Z,5.40
2017-08-16T00:06:35.335Z,6.57
2017-08-16T00:09:03.691Z,11.20
2017-08-16T00:11:32.079Z,6.83
2017-08-16T00:14:00.422Z,4.13
2017-08-16T00:16:28.859Z,3.17
2017-08-16T00:18:57.323Z,6.20
2017-08-16T00:21:25.663Z,6.50
2017-08-16T00:23:54.056Z,3.43
2017-08-16T00:26:22.455Z,4.40
2017-08-16T00:28:50.863Z,3.70
2017-08-16T00:31:20.007Z,4.80
2017-08-16T00:33:48.533Z,3.60
2017-08-16T00:36:17.890Z,4.13
2017-08-16T00:38:46.267Z,5.40
2017-08-16T00:41:14.642Z,3.17
2017-08-16T00:43:43.205Z,3.73
2017-08-16T00:46:11.536Z,3.43
2017-08-16T00:48:39.933Z,4.13
2017-08-16T00:51:08.302Z,5.13
2017-08-16T00:53:37.417Z,4.33
2017-08-16T00:56:06.618Z,8.87
2017-08-16T00:58:34.951Z,4.97
2017-08-16T01:01:03.503Z,3.97
2017-08-16T01:03:32.043Z,4.47
2017-08-16T01:06:01.180Z,4.17
2017-08-16T01:08:29.538Z,12.93
2017-08-16T01:10:57.946Z,9.43
2017-08-16T01:13:26.297Z,21.60
2017-08-16T01:15:54.650Z,16.77
2017-08-16T01:18:23.793Z,23.13
2017-08-16T01:20:52.141Z,20.73
2017-08-16T01:23:20.541Z,21.83
2017-08-16T01:25:48.946Z,10.00
2017-08-16T01:28:17.375Z,16.27
2017-08-16T01:30:45.768Z,13.00
2017-08-16T01:33:14.144Z,14.97
2017-08-16T01:35:42.640Z,15.17
2017-08-16T01:38:10.991Z,10.93
2017-08-16T01:40:39.406Z,9.17
2017-08-16T01:43:07.758Z,8.13
2017-08-16T01:45:36.985Z,16.67
2017-08-16T01:48:05.358Z,11.10
2017-08-16T01:50:33.759Z,12.63
2017-08-16T01:53:02.182Z,8.10
2017-08-16T01:55:30.739Z,5.47
2017-08-16T01:57:59.888Z,7.53
2017-08-16T02:00:28.360Z,5.60
2017-08-16T02:02:56.796Z,6.10
2017-08-16T02:05:25.973Z,9.43
2017-08-16T02:07:54.322Z,8.37
2017-08-16T02:10:22.771Z,7.70
2017-08-16T02:12:51.108Z,5.77
2017-08-16T02:15:19.440Z,6.70
2017-08-16T02:17:47.818Z,6.37
2017-08-16T02:20:16.166Z,7.53
2017-08-16T02:22:44.635Z,8.30
2017-08-16T02:25:13.785Z,6.17
2017-08-16T02:27:42.127Z,5.93
2017-08-16T02:30:10.476Z,6.10
2017-08-16T02:32:39.625Z,5.93
2017-08-16T02:35:07.984Z,5.90
2017-08-16T02:37:36.589Z,5.43
2017-08-16T02:40:04.976Z,7.67
2017-08-16T02:42:33.321Z,7.10
2017-08-16T02:45:01.663Z,12.70
2017-08-16T02:47:30.811Z,6.80
2017-08-16T02:49:59.294Z,5.97
2017-08-16T02:52:27.643Z,4.77
2017-08-16T02:54:56.003Z,5.93
2017-08-16T02:57:25.203Z,6.57
2017-08-16T02:59:53.571Z,5.23
2017-08-16T03:02:22.704Z,4.80
2017-08-16T03:04:51.095Z,7.80
2017-08-16T03:07:19.448Z,6.27
2017-08-16T03:09:47.850Z,14.27
2017-08-16T03:12:16.213Z,9.70
2017-08-16T03:14:44.767Z,10.50
2017-08-16T03:17:13.932Z,6.10
2017-08-16T03:19:42.310Z,6.83
2017-08-16T03:22:10.691Z,8.23
2017-08-16T03:24:39.070Z,4.60
2017-08-16T03:27:07.462Z,5.43
2017-08-16T03:29:35.804Z,6.57
2017-08-16T03:32:04.220Z,8.10
2017-08-16T03:34:33.469Z,5.73
2017-08-16T03:37:01.855Z,7.30
2017-08-16T03:39:30.243Z,5.43
2017-08-16T03:41:58.622Z,5.30
2017-08-16T03:44:27.027Z,5.07
2017-08-16T03:46:56.246Z,6.70
2017-08-16T03:49:24.635Z,9.43
2017-08-16T03:51:52.976Z,5.33
2017-08-16T03:54:21.371Z,6.90
2017-08-16T03:56:50.532Z,5.50
2017-08-16T03:59:18.943Z,5.77
2017-08-16T04:01:48.183Z,5.37
2017-08-16T04:04:16.558Z,5.17
2017-08-16T04:06:44.903Z,7.47
2017-08-16T04:09:14.052Z,6.30
2017-08-16T04:11:42.399Z,5.87
2017-08-16T04:14:10.828Z,7.00
2017-08-16T04:16:39.242Z,5.90
2017-08-16T04:19:07.601Z,6.00
2017-08-16T04:21:36.748Z,4.83
2017-08-16T04:24:05.142Z,5.67
2017-08-16T04:26:33.602Z,6.40
2017-08-16T04:29:02.183Z,7.27
2017-08-16T04:31:30.574Z,10.53
2017-08-16T04:33:59.056Z,5.20
2017-08-16T04:36:27.446Z,8.53
2017-08-16T04:38:55.972Z,10.03
2017-08-16T04:41:24.376Z,6.90
2017-08-16T04:43:52.732Z,6.70
2017-08-16T04:46:21.542Z,5.93
2017-08-16T04:48:49.899Z,14.60
2017-08-16T04:51:18.280Z,6.80
2017-08-16T04:53:46.750Z,7.43
2017-08-16T04:56:15.156Z,8.33
2017-08-16T04:58:43.541Z,9.50
2017-08-16T05:01:12.080Z,6.10
2017-08-16T05:03:40.746Z,6.03
2017-08-16T05:06:10.602Z,5.47
2017-08-16T05:08:40.321Z,5.63
2017-08-16T05:11:08.700Z,5.40
2017-08-16T05:13:37.108Z,7.73
2017-08-16T05:16:05.557Z,7.80
2017-08-16T05:18:33.931Z,14.53
2017-08-16T05:21:02.310Z,31.60
2017-08-16T05:23:30.749Z,38.17
2017-08-16T05:25:59.883Z,38.60
2017-08-16T05:28:28.239Z,35.07
2017-08-16T05:30:56.690Z,32.20
2017-08-16T05:33:25.940Z,36.40
2017-08-16T05:35:54.613Z,31.17
2017-08-16T05:38:23.040Z,34.47
2017-08-16T05:40:51.508Z,39.27
2017-08-16T05:43:19.960Z,39.20
2017-08-16T05:45:48.361Z,42.00
2017-08-16T05:48:16.717Z,51.87
2017-08-16T05:50:45.060Z,51.37
2017-08-16T05:53:13.503Z,50.17
2017-08-16T05:55:41.841Z,46.23
2017-08-16T05:58:10.228Z,55.30
2017-08-16T06:00:38.886Z,49.57
2017-08-16T06:03:07.281Z,53.63
2017-08-16T06:05:35.667Z,55.50
2017-08-16T06:08:04.042Z,65.60
2017-08-16T06:10:33.436Z,56.17
2017-08-16T06:13:01.789Z,54.27
2017-08-16T06:15:30.170Z,48.20
2017-08-16T06:17:58.516Z,69.57
2017-08-16T06:20:26.910Z,62.20
2017-08-16T06:22:56.504Z,52.63
